createdAt,value
2019-03-01T00:00:21.233Z,5.2
2019-03-01T00:01:21.204Z,5.12
2019-03-01T00:02:21.189Z,5.12
2019-03-01T00:03:21.182Z,5.07
2019-03-01T00:04:21.187Z,5.02
2019-03-01T00:05:21.150Z,5
2019-03-01T00:06:21.140Z,5.07
2019-03-01T00:07:21.120Z,5.02
2019-03-01T00:08:21.110Z,4.99
2019-03-01T00:09:21.092Z,4.91
2019-03-01T00:10:21.084Z,4.96
2019-03-01T00:11:21.065Z,5.06
2019-03-01T00:12:21.093Z,5
2019-03-01T00:13:21.041Z,4.99
2019-03-01T00:14:21.021Z,4.92
2019-03-01T00:15:21.008Z,4.89
2019-03-01T00:16:20.994Z,4.88
2019-03-01T00:17:20.983Z,4.96
2019-03-01T00:18:20.982Z,4.94
2019-03-01T00:19:20.954Z,4.92
2019-03-01T00:20:20.939Z,4.88
2019-03-01T00:21:20.923Z,4.88
2019-03-01T00:22:20.917Z,4.8
2019-03-01T00:23:20.896Z,4.86
2019-03-01T00:24:20.886Z,4.88
2019-03-01T00:25:20.871Z,4.78
2019-03-01T00:26:20.853Z,4.86
2019-03-01T00:27:20.840Z,4.82
2019-03-01T00:28:20.830Z,4.84
2019-03-01T00:29:20.817Z,4.8
2019-03-01T00:30:20.798Z,4.78
2019-03-01T00:31:20.785Z,4.78
2019-03-01T00:32:20.771Z,4.8
2019-03-01T00:33:20.755Z,4.77
2019-03-01T00:34:20.745Z,4.8
2019-03-01T00:35:20.726Z,4.84
2019-03-01T00:36:20.715Z,4.67
2019-03-01T00:37:20.715Z,4.7
2019-03-01T00:38:20.682Z,4.69
2019-03-01T00:39:20.719Z,4.65
2019-03-01T00:40:20.656Z,4.69
2019-03-01T00:41:20.640Z,4.7
2019-03-01T00:42:20.625Z,4.67
2019-03-01T00:43:20.614Z,4.69
2019-03-01T00:44:20.599Z,4.72
2019-03-01T00:45:20.596Z,4.72
2019-03-01T00:46:20.572Z,4.72
2019-03-01T00:47:20.596Z,4.65
2019-03-01T00:48:20.546Z,4.75
2019-03-01T00:49:20.526Z,4.8
2019-03-01T00:50:20.513Z,4.82
2019-03-01T00:51:20.499Z,4.7
2019-03-01T00:52:20.490Z,4.67
2019-03-01T00:53:20.470Z,4.63
2019-03-01T00:54:20.457Z,4.67
2019-03-01T00:55:20.479Z,4.69
2019-03-01T00:56:20.470Z,4.7
2019-03-01T00:57:20.183Z,4.72
2019-03-01T00:58:20.400Z,4.72
2019-03-01T00:59:20.426Z,4.66
2019-03-01T01:00:20.624Z,4.72
2019-03-01T01:01:20.365Z,4.73
2019-03-01T01:02:20.346Z,4.67
2019-03-01T01:03:20.329Z,4.65
2019-03-01T01:04:20.316Z,4.78
2019-03-01T01:05:20.305Z,4.7
2019-03-01T01:06:20.282Z,4.78
2019-03-01T01:07:20.272Z,4.92
2019-03-01T01:08:20.263Z,4.96
2019-03-01T01:09:20.241Z,4.94
2019-03-01T01:10:20.226Z,4.99
2019-03-01T01:11:20.210Z,5.17
2019-03-01T01:12:20.198Z,5.13
2019-03-01T01:13:20.186Z,5.3
2019-03-01T01:14:20.173Z,5.22
2019-03-01T01:15:20.181Z,5.33
2019-03-01T01:16:20.146Z,5.38
2019-03-01T01:17:20.133Z,5.39
2019-03-01T01:18:20.113Z,5.46
2019-03-01T01:19:20.103Z,5.48
2019-03-01T01:20:20.086Z,5.49
2019-03-01T01:21:20.071Z,5.48
2019-03-01T01:22:20.054Z,5.56
2019-03-01T01:23:20.043Z,5.58
2019-03-01T01:24:20.029Z,5.54
2019-03-01T01:25:20.017Z,5.57
2019-03-01T01:26:20.002Z,5.63
2019-03-01T01:27:19.989Z,5.68
2019-03-01T01:28:19.986Z,5.68
2019-03-01T01:29:19.959Z,5.64
2019-03-01T01:30:19.993Z,5.64
2019-03-01T01:31:20.183Z,5.63
2019-03-01T01:32:19.922Z,5.65
2019-03-01T01:33:19.916Z,5.65
2019-03-01T01:34:19.891Z,5.65
2019-03-01T01:35:19.878Z,5.56
2019-03-01T01:36:19.866Z,5.63
2019-03-01T01:37:19.846Z,5.63
2019-03-01T01:38:19.590Z,5.65
2019-03-01T01:39:19.581Z,5.74
2019-03-01T01:40:19.810Z,5.72
2019-03-01T01:41:19.794Z,5.72
2019-03-01T01:42:19.785Z,5.76
2019-03-01T01:43:19.766Z,5.82
2019-03-01T01:44:19.751Z,5.76
2019-03-01T01:45:19.741Z,5.9
2019-03-01T01:46:19.753Z,5.89
2019-03-01T01:47:19.738Z,5.94
2019-03-01T01:48:19.697Z,6
2019-03-01T01:49:19.690Z,5.96
2019-03-01T01:50:19.680Z,6.06
2019-03-01T01:51:19.662Z,6.08
2019-03-01T01:52:19.694Z,6.08
2019-03-01T01:53:19.628Z,6.08
2019-03-01T01:54:19.617Z,6.08
2019-03-01T01:55:19.619Z,6.12
2019-03-01T01:56:19.590Z,6.15
2019-03-01T01:57:19.353Z,6.14
2019-03-01T01:58:19.565Z,6.15
2019-03-01T01:59:19.562Z,6.15
2019-03-01T02:00:19.549Z,6.17
2019-03-01T02:01:19.523Z,6.27
2019-03-01T02:02:19.757Z,6.25
2019-03-01T02:03:19.496Z,6.25
2019-03-01T02:04:19.482Z,6.3
2019-03-01T02:05:19.470Z,6.31
2019-03-01T02:06:19.484Z,6.37
2019-03-01T02:07:19.449Z,6.31
2019-03-01T02:08:19.437Z,6.28
2019-03-01T02:09:19.418Z,6.22
2019-03-01T02:10:19.403Z,6.25
2019-03-01T02:11:19.399Z,6.19
2019-03-01T02:12:19.375Z,6.18
2019-03-01T02:13:19.360Z,6.06
2019-03-01T02:14:19.383Z,6.01
2019-03-01T02:15:19.333Z,6.11
2019-03-01T02:16:19.319Z,6.03
2019-03-01T02:17:19.310Z,5.99
2019-03-01T02:18:19.302Z,5.97
2019-03-01T02:19:19.284Z,5.93
2019-03-01T02:20:19.267Z,5.91
2019-03-01T02:21:19.254Z,5.89
2019-03-01T02:22:19.242Z,5.85
2019-03-01T02:23:19.264Z,5.86
2019-03-01T02:24:19.223Z,5.86
2019-03-01T02:25:19.205Z,5.9
2019-03-01T02:26:19.189Z,5.79
2019-03-01T02:27:19.173Z,5.79
2019-03-01T02:28:19.161Z,5.86
2019-03-01T02:29:19.154Z,5.85
2019-03-01T02:30:19.141Z,5.85
2019-03-01T02:31:19.124Z,5.9
2019-03-01T02:32:19.112Z,5.81
2019-03-01T02:33:19.100Z,5.9
2019-03-01T02:34:19.083Z,5.83
2019-03-01T02:35:19.071Z,5.85
2019-03-01T02:36:19.068Z,5.96
2019-03-01T02:37:19.076Z,5.96
2019-03-01T02:38:19.032Z,6.08
2019-03-01T02:39:19.040Z,6.04
2019-03-01T02:40:19.016Z,6.09
2019-03-01T02:41:19.039Z,6
2019-03-01T02:42:18.982Z,6.09
2019-03-01T02:43:18.972Z,6.11
2019-03-01T02:44:18.944Z,6.06
2019-03-01T02:45:18.999Z,6.12
2019-03-01T02:46:18.930Z,6.15
2019-03-01T02:47:19.032Z,6.11
2019-03-01T02:48:18.894Z,6.14
2019-03-01T02:49:18.886Z,6.19
2019-03-01T02:50:18.931Z,6.11
2019-03-01T02:51:18.874Z,6.14
2019-03-01T02:52:18.843Z,6.15
2019-03-01T02:53:18.826Z,6.15
2019-03-01T02:54:18.815Z,6.17
2019-03-01T02:55:18.912Z,6.17
2019-03-01T02:56:18.811Z,6.17
2019-03-01T02:57:18.771Z,6.25
2019-03-01T02:58:18.777Z,6.22
2019-03-01T02:59:18.781Z,6.28
2019-03-01T03:00:18.781Z,6.27
2019-03-01T03:01:18.717Z,6.33
2019-03-01T03:02:18.707Z,6.22
2019-03-01T03:03:18.697Z,6.33
2019-03-01T03:04:18.681Z,6.36
2019-03-01T03:05:18.664Z,6.4
2019-03-01T03:06:18.679Z,6.37
2019-03-01T03:07:18.661Z,6.41
2019-03-01T03:08:18.629Z,6.59
2019-03-01T03:09:18.610Z,6.54
2019-03-01T03:10:18.596Z,6.55
2019-03-01T03:11:18.594Z,6.52
2019-03-01T03:12:18.568Z,6.61
2019-03-01T03:13:18.557Z,6.62
2019-03-01T03:14:18.546Z,6.74
2019-03-01T03:15:18.531Z,6.74
2019-03-01T03:16:18.528Z,6.71
2019-03-01T03:17:18.507Z,6.85
2019-03-01T03:18:18.523Z,6.81
2019-03-01T03:19:18.483Z,6.85
2019-03-01T03:20:18.477Z,6.79
2019-03-01T03:21:18.488Z,6.94
2019-03-01T03:22:18.444Z,6.97
2019-03-01T03:23:18.459Z,6.95
2019-03-01T03:24:18.421Z,7.13
2019-03-01T03:25:18.415Z,7.05
2019-03-01T03:26:18.390Z,7.12
2019-03-01T03:27:18.377Z,7.03
2019-03-01T03:28:17.900Z,7.05
2019-03-01T03:29:18.364Z,7.13
2019-03-01T03:30:18.434Z,7.12
2019-03-01T03:31:18.119Z,7.23
2019-03-01T03:32:18.327Z,7.3
2019-03-01T03:33:18.074Z,7.3
2019-03-01T03:34:18.312Z,7.3
2019-03-01T03:35:18.353Z,7.3
2019-03-01T03:36:18.529Z,7.28
2019-03-01T03:37:18.018Z,7.34
2019-03-01T03:38:18.235Z,7.39
2019-03-01T03:39:18.231Z,7.42
2019-03-01T03:40:18.203Z,7.43
2019-03-01T03:41:18.203Z,7.4
2019-03-01T03:42:18.180Z,7.48
2019-03-01T03:43:18.172Z,7.42
2019-03-01T03:44:18.153Z,7.55
2019-03-01T03:45:18.171Z,7.57
2019-03-01T03:46:18.131Z,7.48
2019-03-01T03:47:18.116Z,7.5
2019-03-01T03:48:18.125Z,7.52
2019-03-01T03:49:18.102Z,7.58
2019-03-01T03:50:18.095Z,7.48
2019-03-01T03:51:18.068Z,7.49
2019-03-01T03:52:18.118Z,7.53
2019-03-01T03:53:18.046Z,7.53
2019-03-01T03:54:18.035Z,7.6
2019-03-01T03:55:18.037Z,7.45
2019-03-01T03:56:18.006Z,7.57
2019-03-01T03:57:18.003Z,7.58
2019-03-01T03:58:17.985Z,7.58
2019-03-01T03:59:17.974Z,7.57
2019-03-01T04:00:17.959Z,7.63
2019-03-01T04:01:17.947Z,7.61
2019-03-01T04:02:17.941Z,7.72
2019-03-01T04:03:17.920Z,7.74
2019-03-01T04:04:17.916Z,7.71
2019-03-01T04:05:17.894Z,7.68
2019-03-01T04:06:17.902Z,7.74
2019-03-01T04:07:18.122Z,7.8
2019-03-01T04:08:17.866Z,7.79
2019-03-01T04:09:17.844Z,7.82
2019-03-01T04:10:17.838Z,7.82
2019-03-01T04:11:17.843Z,7.82
2019-03-01T04:12:17.802Z,7.87
2019-03-01T04:13:19.245Z,7.85
2019-03-01T04:14:17.778Z,7.83
2019-03-01T04:15:17.776Z,7.77
2019-03-01T04:16:17.800Z,7.87
2019-03-01T04:17:17.746Z,7.79
2019-03-01T04:18:17.741Z,7.82
2019-03-01T04:19:17.723Z,7.82
2019-03-01T04:20:17.720Z,7.79
2019-03-01T04:21:17.694Z,7.83
2019-03-01T04:22:17.683Z,7.86
2019-03-01T04:23:17.674Z,7.89
2019-03-01T04:24:17.669Z,7.92
2019-03-01T04:25:17.650Z,7.9
2019-03-01T04:26:17.642Z,7.87
2019-03-01T04:27:17.628Z,8.02
2019-03-01T04:28:17.608Z,8.05
2019-03-01T04:29:17.600Z,8
2019-03-01T04:30:17.595Z,8.02
2019-03-01T04:31:17.581Z,8.04
2019-03-01T04:32:17.560Z,8.02
2019-03-01T04:33:17.552Z,8.05
2019-03-01T04:34:17.536Z,8.01
2019-03-01T04:35:17.543Z,8.01
2019-03-01T04:36:17.510Z,8.02
2019-03-01T04:37:17.534Z,8.04
2019-03-01T04:38:17.735Z,8.02
2019-03-01T04:39:17.493Z,8.02
2019-03-01T04:40:17.467Z,7.97
2019-03-01T04:41:17.450Z,8.01
2019-03-01T04:42:17.436Z,7.95
2019-03-01T04:43:17.426Z,7.95
2019-03-01T04:44:17.457Z,7.95
2019-03-01T04:45:17.411Z,7.89
2019-03-01T04:46:17.389Z,7.92
2019-03-01T04:47:17.375Z,7.92
2019-03-01T04:48:17.364Z,7.98
2019-03-01T04:49:17.355Z,7.9
2019-03-01T04:50:17.343Z,7.97
2019-03-01T04:51:17.344Z,7.98
2019-03-01T04:52:17.317Z,7.97
2019-03-01T04:53:17.302Z,8.02
2019-03-01T04:54:17.291Z,8.01
2019-03-01T04:55:17.275Z,8.08
2019-03-01T04:56:17.265Z,8.01
2019-03-01T04:57:17.258Z,8.07
2019-03-01T04:58:17.284Z,8.01
2019-03-01T04:59:17.234Z,8
2019-03-01T05:00:17.223Z,8.01
2019-03-01T05:01:17.207Z,7.98
2019-03-01T05:02:16.958Z,8.01
2019-03-01T05:03:17.185Z,8.18
2019-03-01T05:04:17.180Z,8.16
2019-03-01T05:05:17.162Z,8.23
2019-03-01T05:06:17.167Z,8.16
2019-03-01T05:07:17.156Z,8.16
2019-03-01T05:08:16.881Z,8.12
2019-03-01T05:09:17.110Z,8.22
2019-03-01T05:10:17.095Z,8.16
2019-03-01T05:11:17.089Z,8.1
2019-03-01T05:12:17.076Z,8.05
2019-03-01T05:13:17.059Z,8.02
2019-03-01T05:14:17.046Z,8.15
2019-03-01T05:15:17.093Z,8.01
2019-03-01T05:16:17.027Z,8.07
2019-03-01T05:17:17.025Z,8.05
2019-03-01T05:18:17.006Z,8.1
2019-03-01T05:19:16.988Z,8.02
2019-03-01T05:20:16.978Z,8.04
2019-03-01T05:21:16.964Z,8.05
2019-03-01T05:22:16.954Z,8
2019-03-01T05:23:16.939Z,8.02
2019-03-01T05:24:16.683Z,7.97
2019-03-01T05:25:16.957Z,7.97
2019-03-01T05:26:16.904Z,8
2019-03-01T05:27:16.893Z,8.01
2019-03-01T05:28:16.881Z,7.97
2019-03-01T05:29:16.869Z,8.01
2019-03-01T05:30:16.856Z,7.97
2019-03-01T05:31:16.839Z,7.95
2019-03-01T05:32:16.828Z,7.93
2019-03-01T05:33:16.818Z,7.93
2019-03-01T05:34:16.804Z,8.02
2019-03-01T05:35:16.794Z,8
2019-03-01T05:36:16.806Z,7.95
2019-03-01T05:37:16.770Z,8.07
2019-03-01T05:38:26.182Z,8.02
2019-03-01T05:39:16.746Z,8.01
2019-03-01T05:40:16.489Z,8.02
2019-03-01T05:41:16.721Z,8.01
2019-03-01T05:42:16.711Z,7.98
2019-03-01T05:43:16.698Z,8.15
2019-03-01T05:44:16.685Z,8.15
2019-03-01T05:45:16.687Z,8.15
2019-03-01T05:46:16.665Z,8.1
2019-03-01T05:47:16.651Z,8.15
2019-03-01T05:48:16.636Z,8.18
2019-03-01T05:49:16.626Z,8.22
2019-03-01T05:50:16.633Z,8.25
2019-03-01T05:51:16.599Z,8.33
2019-03-01T05:52:16.611Z,8.28
2019-03-01T05:53:16.594Z,8.29
2019-03-01T05:54:16.570Z,8.29
2019-03-01T05:55:16.557Z,8.3
2019-03-01T05:56:16.543Z,8.37
2019-03-01T05:57:16.535Z,8.29
2019-03-01T05:58:21.418Z,8.29
2019-03-01T05:59:16.505Z,8.36
2019-03-01T06:00:16.502Z,8.47
2019-03-01T06:01:16.480Z,8.41
2019-03-01T06:02:16.225Z,8.45
2019-03-01T06:03:16.463Z,8.48
2019-03-01T06:04:16.443Z,8.5
2019-03-01T06:05:16.455Z,8.43
2019-03-01T06:06:16.418Z,8.48
2019-03-01T06:07:16.410Z,8.43
2019-03-01T06:08:16.394Z,8.45
2019-03-01T06:09:16.430Z,8.52
2019-03-01T06:10:16.375Z,8.48
2019-03-01T06:11:16.363Z,8.5
2019-03-01T06:12:16.596Z,8.53
2019-03-01T06:13:16.337Z,8.53
2019-03-01T06:14:16.324Z,8.63
2019-03-01T06:15:16.310Z,8.71
2019-03-01T06:16:16.306Z,8.55
2019-03-01T06:17:16.286Z,8.7
2019-03-01T06:18:16.274Z,8.7
2019-03-01T06:19:16.278Z,8.66
2019-03-01T06:20:16.263Z,8.74
2019-03-01T06:21:16.243Z,8.76
2019-03-01T06:22:16.230Z,8.66
2019-03-01T06:23:16.217Z,8.8
2019-03-01T06:24:16.204Z,8.81
2019-03-01T06:25:16.199Z,8.79
2019-03-01T06:26:16.180Z,8.79
2019-03-01T06:27:16.421Z,8.84
2019-03-01T06:28:16.201Z,8.83
2019-03-01T06:29:16.147Z,8.87
2019-03-01T06:30:16.134Z,8.87
2019-03-01T06:31:16.130Z,8.91
2019-03-01T06:32:16.113Z,8.77
2019-03-01T06:33:16.105Z,8.77
2019-03-01T06:34:16.095Z,8.83
2019-03-01T06:35:16.078Z,8.79
2019-03-01T06:36:16.087Z,8.8
2019-03-01T06:37:16.057Z,8.79
2019-03-01T06:38:16.224Z,8.79
2019-03-01T06:39:16.046Z,8.77
2019-03-01T06:40:16.021Z,8.81
2019-03-01T06:41:16.008Z,8.73
2019-03-01T06:42:15.996Z,8.84
2019-03-01T06:43:15.996Z,8.89
2019-03-01T06:44:15.990Z,8.92
2019-03-01T06:45:15.961Z,8.86
2019-03-01T06:46:15.710Z,8.84
2019-03-01T06:47:15.936Z,8.89
2019-03-01T06:48:15.926Z,8.91
2019-03-01T06:49:15.918Z,8.94
2019-03-01T06:50:17.879Z,8.89
2019-03-01T06:51:15.973Z,8.98
2019-03-01T06:52:15.883Z,8.98
2019-03-01T06:53:15.867Z,9.04
2019-03-01T06:54:15.861Z,9.04
2019-03-01T06:55:15.846Z,9.01
2019-03-01T06:56:15.832Z,9.02
2019-03-01T06:57:15.822Z,8.99
2019-03-01T06:58:15.810Z,9.01
2019-03-01T06:59:15.807Z,9.11
2019-03-01T07:00:15.798Z,9.08
2019-03-01T07:01:15.775Z,9.13
2019-03-01T07:02:15.766Z,9.13
2019-03-01T07:03:30.425Z,9.14
2019-03-01T07:04:15.501Z,9.13
2019-03-01T07:05:15.759Z,9.1
2019-03-01T07:06:15.715Z,9.08
2019-03-01T07:07:15.709Z,8.95
2019-03-01T07:08:30.370Z,8.71
2019-03-01T07:09:15.695Z,8.65
2019-03-01T07:10:30.346Z,8.48
2019-03-01T07:11:15.680Z,8.44
2019-03-01T07:12:15.408Z,8.38
2019-03-01T07:13:15.640Z,8.22
2019-03-01T07:14:15.879Z,8.15
2019-03-01T07:15:15.618Z,7.98
2019-03-01T07:16:15.603Z,7.89
2019-03-01T07:17:15.592Z,7.85
2019-03-01T07:18:15.587Z,7.8
2019-03-01T07:19:15.572Z,7.79
2019-03-01T07:20:17.458Z,7.69
2019-03-01T07:21:15.545Z,7.68
2019-03-01T07:22:15.532Z,7.55
2019-03-01T07:23:15.521Z,7.57
2019-03-01T07:24:15.813Z,7.57
2019-03-01T07:25:15.498Z,7.63
2019-03-01T07:26:15.487Z,7.6
2019-03-01T07:27:17.203Z,7.67
2019-03-01T07:28:15.474Z,7.61
2019-03-01T07:29:15.460Z,7.72
2019-03-01T07:30:15.438Z,7.82
2019-03-01T07:31:15.425Z,7.86
2019-03-01T07:32:15.430Z,7.9
2019-03-01T07:33:15.399Z,7.89
2019-03-01T07:34:15.387Z,8.05
2019-03-01T07:35:15.399Z,8.01
2019-03-01T07:36:15.367Z,8.04
2019-03-01T07:37:15.401Z,8.11
2019-03-01T07:38:15.344Z,7.98
2019-03-01T07:39:15.331Z,8.04
2019-03-01T07:40:15.322Z,8.07
2019-03-01T07:41:15.307Z,7.98
2019-03-01T07:42:15.317Z,8
2019-03-01T07:43:15.308Z,8.18
2019-03-01T07:44:15.275Z,8.15
2019-03-01T07:45:15.515Z,8.11
2019-03-01T07:46:15.263Z,8.16
2019-03-01T07:47:15.233Z,8.36
2019-03-01T07:48:15.220Z,8.29
2019-03-01T07:49:15.210Z,8.45
2019-03-01T07:50:15.216Z,8.4
2019-03-01T07:51:14.951Z,8.5
2019-03-01T07:52:15.172Z,8.47
2019-03-01T07:53:15.175Z,8.36
2019-03-01T07:54:22.205Z,8.34
2019-03-01T07:55:15.157Z,8.47
2019-03-01T07:56:15.134Z,8.44
2019-03-01T07:57:17.919Z,8.44
2019-03-01T07:58:15.115Z,8.48
2019-03-01T07:59:15.096Z,8.52
2019-03-01T08:00:18.518Z,8.53
2019-03-01T08:01:15.067Z,8.59
2019-03-01T08:02:15.055Z,8.61
2019-03-01T08:03:18.243Z,8.61
2019-03-01T08:04:15.031Z,8.71
2019-03-01T08:05:17.834Z,8.73
2019-03-01T08:06:18.063Z,8.7
2019-03-01T08:07:15.002Z,8.63
2019-03-01T08:08:14.989Z,8.77
2019-03-01T08:09:14.976Z,8.7
2019-03-01T08:10:20.491Z,8.77
2019-03-01T08:11:14.963Z,8.71
2019-03-01T08:12:14.965Z,8.76
2019-03-01T08:13:19.605Z,8.68
2019-03-01T08:14:15.153Z,8.74
2019-03-01T08:15:14.912Z,8.66
2019-03-01T08:16:16.537Z,8.71
2019-03-01T08:17:14.885Z,8.8
2019-03-01T08:18:14.891Z,8.74
2019-03-01T08:19:22.245Z,8.84
2019-03-01T08:20:14.916Z,8.76
2019-03-01T08:21:17.367Z,8.86
2019-03-01T08:22:14.827Z,8.98
2019-03-01T08:23:16.849Z,8.98
2019-03-01T08:24:16.506Z,9.01
2019-03-01T08:25:14.790Z,9.04
2019-03-01T08:26:14.783Z,9.04
2019-03-01T08:27:15.910Z,9.08
2019-03-01T08:28:14.797Z,8.99
2019-03-01T08:29:14.749Z,9.04
2019-03-01T08:30:15.981Z,8.96
2019-03-01T08:31:17.397Z,9.02
2019-03-01T08:32:14.710Z,8.99
2019-03-01T08:33:14.700Z,9.14
2019-03-01T08:34:17.675Z,9.11
2019-03-01T08:35:14.681Z,9.08
2019-03-01T08:36:14.667Z,9.18
2019-03-01T08:37:17.547Z,9.14
2019-03-01T08:38:14.641Z,9.18
2019-03-01T08:39:14.636Z,9.18
2019-03-01T08:40:19.132Z,9.15
2019-03-01T08:41:14.366Z,9.24
2019-03-01T08:42:14.603Z,9.11
2019-03-01T08:43:17.852Z,9.18
2019-03-01T08:44:14.575Z,9.26
2019-03-01T08:45:14.567Z,9.24
2019-03-01T08:46:15.279Z,9.24
2019-03-01T08:47:16.614Z,9.26
2019-03-01T08:48:14.542Z,9.28
2019-03-01T08:49:16.019Z,9.31
2019-03-01T08:50:14.508Z,9.38
2019-03-01T08:51:14.494Z,9.39
2019-03-01T08:52:14.481Z,9.4
2019-03-01T08:53:18.426Z,9.43
2019-03-01T08:54:14.462Z,9.42
2019-03-01T08:55:14.452Z,9.5
2019-03-01T08:56:25.771Z,9.5
2019-03-01T08:57:14.445Z,9.51
2019-03-01T08:58:14.418Z,9.56
2019-03-01T08:59:19.467Z,9.6
2019-03-01T09:00:14.399Z,9.64
2019-03-01T09:01:14.599Z,9.64
2019-03-01T09:02:16.723Z,9.76
2019-03-01T09:03:15.971Z,9.68
2019-03-01T09:04:21.348Z,9.78
2019-03-01T09:05:14.689Z,9.81
2019-03-01T09:06:14.330Z,9.78
2019-03-01T09:07:14.326Z,9.87
2019-03-01T09:08:14.323Z,9.86
2019-03-01T09:09:17.525Z,10.01
2019-03-01T09:10:14.287Z,9.9
2019-03-01T09:11:15.157Z,10.07
2019-03-01T09:12:14.282Z,9.99
2019-03-01T09:13:14.265Z,9.96
2019-03-01T09:14:14.253Z,10.08
2019-03-01T09:15:14.243Z,10.05
2019-03-01T09:16:14.224Z,9.97
2019-03-01T09:17:14.214Z,10.01
2019-03-01T09:18:17.744Z,10.01
2019-03-01T09:19:14.205Z,10.01
2019-03-01T09:20:14.179Z,10.02
2019-03-01T09:21:17.051Z,9.83
2019-03-01T09:22:14.159Z,9.78
2019-03-01T09:23:29.732Z,9.78
2019-03-01T09:24:14.140Z,9.83
2019-03-01T09:25:14.127Z,9.71
2019-03-01T09:26:16.588Z,9.68
2019-03-01T09:27:14.106Z,9.43
2019-03-01T09:28:14.129Z,9.4
2019-03-01T09:29:18.396Z,9.28
2019-03-01T09:30:14.074Z,9.08
2019-03-01T09:31:14.064Z,8.96
2019-03-01T09:32:14.054Z,8.81
2019-03-01T09:33:17.085Z,8.7
2019-03-01T09:34:14.034Z,8.66
2019-03-01T09:35:14.036Z,8.52
2019-03-01T09:36:17.592Z,8.58
2019-03-01T09:37:13.995Z,8.59
2019-03-01T09:38:16.121Z,8.52
2019-03-01T09:39:19.870Z,8.48
2019-03-01T09:40:13.973Z,8.52
2019-03-01T09:41:13.963Z,8.52
2019-03-01T09:42:19.852Z,8.48
2019-03-01T09:43:13.935Z,8.48
2019-03-01T09:44:13.923Z,8.59
2019-03-01T09:45:15.816Z,8.62
2019-03-01T09:46:13.899Z,8.68
2019-03-01T09:47:13.895Z,8.73
2019-03-01T09:48:17.563Z,8.77
2019-03-01T09:49:13.868Z,8.79
2019-03-01T09:50:14.103Z,8.73
2019-03-01T09:51:18.326Z,8.8
2019-03-01T09:52:13.831Z,8.74
2019-03-01T09:53:13.839Z,8.8
2019-03-01T09:54:14.973Z,8.79
2019-03-01T09:55:13.802Z,8.65
2019-03-01T09:56:17.251Z,8.55
2019-03-01T09:57:15.552Z,8.62
2019-03-01T09:58:13.769Z,8.59
2019-03-01T09:59:13.753Z,8.48
2019-03-01T10:00:13.743Z,8.38
2019-03-01T10:01:13.756Z,8.5
2019-03-01T10:02:13.724Z,8.56
2019-03-01T10:03:13.718Z,8.48
2019-03-01T10:04:13.705Z,8.58
2019-03-01T10:05:13.687Z,8.59
2019-03-01T10:06:13.755Z,8.7
2019-03-01T10:07:13.664Z,8.66
2019-03-01T10:08:13.416Z,8.63
2019-03-01T10:09:13.644Z,8.74
2019-03-01T10:10:13.639Z,8.68
2019-03-01T10:11:13.620Z,8.68
2019-03-01T10:12:13.616Z,8.74
2019-03-01T10:13:13.603Z,8.74
2019-03-01T10:14:13.591Z,8.7
2019-03-01T10:15:13.584Z,8.77
2019-03-01T10:16:13.564Z,8.79
2019-03-01T10:17:13.551Z,8.84
2019-03-01T10:18:13.541Z,8.92
2019-03-01T10:19:13.530Z,8.98
2019-03-01T10:20:13.517Z,8.98
2019-03-01T10:21:13.766Z,9.01
2019-03-01T10:22:13.495Z,9.1
2019-03-01T10:23:13.485Z,9.11
2019-03-01T10:24:13.473Z,9.2
2019-03-01T10:25:13.461Z,9.11
2019-03-01T10:26:13.451Z,9.2
2019-03-01T10:27:13.196Z,9.18
2019-03-01T10:28:13.426Z,9.14
2019-03-01T10:29:13.414Z,9.15
2019-03-01T10:30:13.412Z,9.23
2019-03-01T10:31:13.398Z,9.32
2019-03-01T10:32:14.956Z,9.36
2019-03-01T10:33:13.373Z,9.38
2019-03-01T10:34:13.359Z,9.5
2019-03-01T10:35:13.348Z,9.42
2019-03-01T10:36:13.340Z,9.46
2019-03-01T10:37:13.328Z,9.51
2019-03-01T10:38:13.321Z,9.65
2019-03-01T10:39:13.307Z,9.72
2019-03-01T10:40:13.293Z,9.71
2019-03-01T10:41:13.280Z,9.79
2019-03-01T10:42:13.281Z,9.79
2019-03-01T10:43:13.265Z,9.99
2019-03-01T10:44:13.248Z,10.14
2019-03-01T10:45:13.240Z,10.09
2019-03-01T10:46:13.227Z,10.23
2019-03-01T10:47:13.256Z,10.22
2019-03-01T10:48:13.207Z,10.25
2019-03-01T10:49:13.201Z,10.23
2019-03-01T10:50:13.186Z,10.29
2019-03-01T10:51:13.176Z,10.32
2019-03-01T10:52:13.964Z,10.29
2019-03-01T10:53:13.269Z,10.29
2019-03-01T10:54:13.142Z,10.33
2019-03-01T10:55:13.139Z,10.2
2019-03-01T10:56:13.125Z,10.2
2019-03-01T10:57:13.115Z,10.09
2019-03-01T10:58:13.100Z,10.07
2019-03-01T10:59:13.091Z,10.11
2019-03-01T11:00:13.087Z,10.02
2019-03-01T11:01:13.072Z,10.11
2019-03-01T11:02:13.066Z,10.11
2019-03-01T11:03:13.056Z,10.07
2019-03-01T11:04:13.042Z,9.99
2019-03-01T11:05:13.038Z,10.11
2019-03-01T11:06:13.023Z,10.09
2019-03-01T11:07:13.011Z,10.08
2019-03-01T11:08:13.001Z,10.05
2019-03-01T11:09:12.989Z,10.01
2019-03-01T11:10:12.989Z,9.93
2019-03-01T11:11:12.968Z,9.83
2019-03-01T11:12:12.979Z,9.79
2019-03-01T11:13:13.254Z,9.75
2019-03-01T11:14:12.938Z,9.64
2019-03-01T11:15:12.928Z,9.56
2019-03-01T11:16:12.915Z,9.46
2019-03-01T11:17:12.918Z,9.54
2019-03-01T11:18:12.905Z,9.48
2019-03-01T11:19:12.890Z,9.42
2019-03-01T11:20:12.874Z,9.39
2019-03-01T11:21:12.868Z,9.43
2019-03-01T11:22:12.852Z,9.36
2019-03-01T11:23:12.848Z,9.33
2019-03-01T11:24:12.836Z,9.33
2019-03-01T11:25:12.822Z,9.29
2019-03-01T11:26:12.815Z,9.28
2019-03-01T11:27:17.919Z,9.26
2019-03-01T11:28:13.613Z,9.32
2019-03-01T11:29:12.783Z,9.33
2019-03-01T11:30:12.775Z,9.18
2019-03-01T11:31:12.761Z,9.14
2019-03-01T11:32:12.749Z,9.13
2019-03-01T11:33:12.749Z,9.1
2019-03-01T11:34:12.728Z,8.98
2019-03-01T11:35:12.716Z,9.05
2019-03-01T11:36:12.707Z,9.02
2019-03-01T11:37:12.702Z,9.01
2019-03-01T11:38:12.685Z,8.86
2019-03-01T11:39:12.670Z,8.81
2019-03-01T11:40:12.665Z,8.81
2019-03-01T11:41:12.652Z,8.66
2019-03-01T11:42:12.640Z,8.71
2019-03-01T11:43:12.628Z,8.8
2019-03-01T11:44:12.619Z,8.7
2019-03-01T11:45:12.605Z,8.81
2019-03-01T11:46:12.364Z,8.73
2019-03-01T11:47:12.588Z,8.7
2019-03-01T11:48:12.580Z,8.63
2019-03-01T11:49:12.569Z,8.5
2019-03-01T11:50:12.549Z,8.63
2019-03-01T11:51:12.539Z,8.58
2019-03-01T11:52:12.539Z,8.61
2019-03-01T11:53:12.519Z,8.58
2019-03-01T11:54:12.505Z,8.59
2019-03-01T11:55:12.500Z,8.66
2019-03-01T11:56:12.487Z,8.63
2019-03-01T11:57:12.475Z,8.7
2019-03-01T11:58:12.470Z,8.71
2019-03-01T11:59:12.469Z,8.86
2019-03-01T12:00:12.440Z,8.79
2019-03-01T12:01:21.653Z,8.76
2019-03-01T12:02:12.420Z,8.81
2019-03-01T12:03:12.410Z,8.79
2019-03-01T12:04:12.397Z,8.74
2019-03-01T12:05:12.393Z,8.8
2019-03-01T12:06:12.371Z,8.86
2019-03-01T12:07:12.360Z,8.92
2019-03-01T12:08:12.355Z,8.77
2019-03-01T12:09:12.340Z,8.81
2019-03-01T12:10:12.513Z,8.8
2019-03-01T12:11:12.327Z,8.7
2019-03-01T12:12:12.307Z,8.74
2019-03-01T12:13:12.294Z,8.62
2019-03-01T12:14:12.286Z,8.52
2019-03-01T12:15:12.275Z,8.45
2019-03-01T12:16:12.261Z,8.48
2019-03-01T12:17:12.250Z,8.4
2019-03-01T12:18:12.299Z,8.52
2019-03-01T12:19:12.227Z,8.65
2019-03-01T12:20:12.218Z,8.63
2019-03-01T12:21:12.209Z,8.59
2019-03-01T12:22:21.606Z,8.63
2019-03-01T12:23:12.192Z,8.61
2019-03-01T12:24:12.172Z,8.59
2019-03-01T12:25:12.906Z,8.59
2019-03-01T12:26:12.156Z,8.59
2019-03-01T12:27:12.135Z,8.61
2019-03-01T12:28:12.126Z,8.56
2019-03-01T12:29:12.114Z,8.59
2019-03-01T12:30:12.110Z,8.5
2019-03-01T12:31:12.097Z,8.45
2019-03-01T12:32:12.084Z,8.38
2019-03-01T12:33:12.073Z,8.38
2019-03-01T12:34:12.060Z,8.4
2019-03-01T12:35:12.066Z,8.36
2019-03-01T12:36:12.047Z,8.29
2019-03-01T12:37:12.046Z,8.33
2019-03-01T12:38:12.011Z,8.36
2019-03-01T12:39:12.491Z,8.34
2019-03-01T12:40:11.991Z,8.28
2019-03-01T12:41:11.989Z,8.34
2019-03-01T12:42:11.972Z,8.33
2019-03-01T12:43:11.967Z,8.41
2019-03-01T12:44:11.951Z,8.47
2019-03-01T12:45:11.933Z,8.43
2019-03-01T12:46:11.924Z,8.48
2019-03-01T12:47:11.915Z,8.61
2019-03-01T12:48:11.897Z,8.48
2019-03-01T12:49:11.888Z,8.37
2019-03-01T12:50:11.877Z,8.38
2019-03-01T12:51:12.168Z,8.38
2019-03-01T12:52:11.854Z,8.4
2019-03-01T12:53:11.840Z,8.4
2019-03-01T12:54:11.832Z,8.44
2019-03-01T12:55:12.395Z,8.47
2019-03-01T12:56:11.810Z,8.34
2019-03-01T12:57:11.799Z,8.34
2019-03-01T12:58:21.761Z,8.45
2019-03-01T12:59:11.780Z,8.47
2019-03-01T13:00:11.766Z,8.47
2019-03-01T13:01:11.754Z,8.37
2019-03-01T13:02:11.744Z,8.4
2019-03-01T13:03:14.480Z,8.5
2019-03-01T13:04:11.719Z,8.59
2019-03-01T13:05:11.712Z,8.71
2019-03-01T13:06:11.460Z,8.7
2019-03-01T13:07:15.363Z,8.84
2019-03-01T13:08:12.472Z,8.8
2019-03-01T13:09:11.916Z,8.81
2019-03-01T13:10:11.802Z,8.76
2019-03-01T13:11:16.124Z,8.7
2019-03-01T13:12:11.629Z,8.66
2019-03-01T13:13:13.250Z,8.79
2019-03-01T13:14:12.081Z,8.74
2019-03-01T13:15:15.788Z,8.91
2019-03-01T13:16:11.594Z,8.92
2019-03-01T13:17:11.571Z,8.86
2019-03-01T13:18:19.159Z,8.83
2019-03-01T13:19:11.557Z,8.86
2019-03-01T13:20:11.545Z,8.91
2019-03-01T13:21:15.934Z,8.86